sensor_id;sensor_type;location;lat;lon;timestamp;temperature;humidity
2174;DHT22;1093;51.424;11.764;2023-07-28T00:00:58;18.90;1.40
2174;DHT22;1093;51.424;11.764;2023-07-28T00:03:26;18.90;1.40
2174;DHT22;1093;51.424;11.764;2023-07-28T00:05:53;18.90;1.40
2174;DHT22;1093;51.424;11.764;2023-07-28T00:08:20;18.90;1.40
2174;DHT22;1093;51.424;11.764;2023-07-28T00:10:47;18.90;1.40
2174;DHT22;1093;51.424;11.764;2023-07-28T00:13:15;18.90;1.40
2174;DHT22;1093;51.424;11.764;2023-07-28T00:15:42;18.90;1.40
2174;DHT22;1093;51.424;11.764;2023-07-28T00:18:09;18.90;1.40
2174;DHT22;1093;51.424;11.764;2023-07-28T00:20:36;18.90;1.40
2174;DHT22;1093;51.424;11.764;2023-07-28T00:23:03;18.90;1.40
2174;DHT22;1093;51.424;11.764;2023-07-28T00:25:30;18.90;1.40
2174;DHT22;1093;51.424;11.764;2023-07-28T00:27:57;18.80;1.40
2174;DHT22;1093;51.424;11.764;2023-07-28T00:30:25;18.80;1.40
2174;DHT22;1093;51.424;11.764;2023-07-28T00:32:52;18.80;1.40
2174;DHT22;1093;51.424;11.764;2023-07-28T00:35:18;18.80;1.40
2174;DHT22;1093;51.424;11.764;2023-07-28T00:37:45;18.80;1.40
2174;DHT22;1093;51.424;11.764;2023-07-28T00:40:12;18.80;1.40
2174;DHT22;1093;51.424;11.764;2023-07-28T00:42:39;18.80;1.40
2174;DHT22;1093;51.424;11.764;2023-07-28T00:45:07;18.80;1.40
2174;DHT22;1093;51.424;11.764;2023-07-28T00:47:36;18.80;1.40
2174;DHT22;1093;51.424;11.764;2023-07-28T00:50:04;18.90;1.40
2174;DHT22;1093;51.424;11.764;2023-07-28T00:52:31;18.90;1.40
2174;DHT22;1093;51.424;11.764;2023-07-28T00:54:58;18.90;1.40
2174;DHT22;1093;51.424;11.764;2023-07-28T00:57:25;18.80;1.40
2174;DHT22;1093;51.424;11.764;2023-07-28T00:59:52;18.80;1.40
2174;DHT22;1093;51.424;11.764;2023-07-28T01:02:19;18.90;1.40
2174;DHT22;1093;51.424;11.764;2023-07-28T01:04:50;18.90;1.40
2174;DHT22;1093;51.424;11.764;2023-07-28T01:07:21;18.90;1.40
2174;DHT22;1093;51.424;11.764;2023-07-28T01:10:05;18.90;1.40
2174;DHT22;1093;51.424;11.764;2023-07-28T01:12:32;18.90;1.40
2174;DHT22;1093;51.424;11.764;2023-07-28T01:14:59;18.80;1.40
2174;DHT22;1093;51.424;11.764;2023-07-28T01:17:26;18.80;1.40
2174;DHT22;1093;51.424;11.764;2023-07-28T01:19:56;18.90;1.40
2174;DHT22;1093;51.424;11.764;2023-07-28T01:25:28;18.80;1.40
2174;DHT22;1093;51.424;11.764;2023-07-28T01:28:00;18.80;1.40
2174;DHT22;1093;51.424;11.764;2023-07-28T01:30:28;18.80;1.40
2174;DHT22;1093;51.424;11.764;2023-07-28T01:32:55;18.80;1.40
2174;DHT22;1093;51.424;11.764;2023-07-28T01:35:23;18.80;1.40
2174;DHT22;1093;51.424;11.764;2023-07-28T01:37:50;18.80;1.40
2174;DHT22;1093;51.424;11.764;2023-07-28T01:40:17;18.80;1.40
2174;DHT22;1093;51.424;11.764;2023-07-28T01:42:44;18.80;1.40
2174;DHT22;1093;51.424;11.764;2023-07-28T01:45:12;18.80;1.40
2174;DHT22;1093;51.424;11.764;2023-07-28T01:47:39;18.80;1.40
2174;DHT22;1093;51.424;11.764;2023-07-28T01:50:06;18.80;1.40
2174;DHT22;1093;51.424;11.764;2023-07-28T01:52:33;18.80;1.40
2174;DHT22;1093;51.424;11.764;2023-07-28T01:55:01;18.80;1.40
2174;DHT22;1093;51.424;11.764;2023-07-28T01:57:30;18.90;1.40
2174;DHT22;1093;51.424;11.764;2023-07-28T01:59:57;18.90;1.40
2174;DHT22;1093;51.424;11.764;2023-07-28T02:02:25;18.90;1.40
2174;DHT22;1093;51.424;11.764;2023-07-28T02:04:52;18.90;1.40
2174;DHT22;1093;51.424;11.764;2023-07-28T02:07:19;18.90;1.40
2174;DHT22;1093;51.424;11.764;2023-07-28T02:09:46;18.90;1.40
2174;DHT22;1093;51.424;11.764;2023-07-28T02:12:13;18.90;1.40
2174;DHT22;1093;51.424;11.764;2023-07-28T02:14:40;18.90;1.40
2174;DHT22;1093;51.424;11.764;2023-07-28T02:17:07;18.90;1.40
2174;DHT22;1093;51.424;11.764;2023-07-28T02:19:35;18.90;1.40
2174;DHT22;1093;51.424;11.764;2023-07-28T02:22:02;18.90;1.40
2174;DHT22;1093;51.424;11.764;2023-07-28T02:24:29;18.90;1.40
2174;DHT22;1093;51.424;11.764;2023-07-28T02:26:56;18.90;1.40
2174;DHT22;1093;51.424;11.764;2023-07-28T02:29:23;18.90;1.40
2174;DHT22;1093;51.424;11.764;2023-07-28T02:35:12;18.90;1.40
2174;DHT22;1093;51.424;11.764;2023-07-28T02:37:39;18.80;1.40
2174;DHT22;1093;51.424;11.764;2023-07-28T02:40:07;18.80;1.40
2174;DHT22;1093;51.424;11.764;2023-07-28T02:42:34;18.80;1.40
2174;DHT22;1093;51.424;11.764;2023-07-28T02:45:02;18.90;1.40
2174;DHT22;1093;51.424;11.764;2023-07-28T02:47:28;18.90;1.40
2174;DHT22;1093;51.424;11.764;2023-07-28T03:11:06;18.80;1.40
2174;DHT22;1093;51.424;11.764;2023-07-28T03:13:45;18.80;1.40
2174;DHT22;1093;51.424;11.764;2023-07-28T03:16:25;18.80;1.40
2174;DHT22;1093;51.424;11.764;2023-07-28T03:19:02;18.80;1.40
2174;DHT22;1093;51.424;11.764;2023-07-28T03:21:31;18.80;1.40
2174;DHT22;1093;51.424;11.764;2023-07-28T03:24:12;18.80;1.40
2174;DHT22;1093;51.424;11.764;2023-07-28T03:27:05;18.80;1.40
2174;DHT22;1093;51.424;11.764;2023-07-28T03:30:04;18.90;1.40
2174;DHT22;1093;51.424;11.764;2023-07-28T03:32:43;18.80;1.40
2174;DHT22;1093;51.424;11.764;2023-07-28T03:35:13;18.80;1.40
2174;DHT22;1093;51.424;11.764;2023-07-28T03:37:42;18.80;1.40
2174;DHT22;1093;51.424;11.764;2023-07-28T03:40:21;18.80;1.40
2174;DHT22;1093;51.424;11.764;2023-07-28T03:43:03;18.80;1.40
2174;DHT22;1093;51.424;11.764;2023-07-28T03:45:44;18.80;1.40
2174;DHT22;1093;51.424;11.764;2023-07-28T03:48:26;18.80;1.40
2174;DHT22;1093;51.424;11.764;2023-07-28T03:50:54;18.80;1.40
2174;DHT22;1093;51.424;11.764;2023-07-28T03:53:31;18.80;1.40
2174;DHT22;1093;51.424;11.764;2023-07-28T03:56:06;18.80;1.40
2174;DHT22;1093;51.424;11.764;2023-07-28T03:58:37;18.80;1.40
2174;DHT22;1093;51.424;11.764;2023-07-28T04:01:07;18.80;1.40
2174;DHT22;1093;51.424;11.764;2023-07-28T04:03:37;18.80;1.40
2174;DHT22;1093;51.424;11.764;2023-07-28T04:06:09;18.80;1.40
2174;DHT22;1093;51.424;11.764;2023-07-28T04:08:42;18.80;1.40
2174;DHT22;1093;51.424;11.764;2023-07-28T04:11:11;18.90;1.40
2174;DHT22;1093;51.424;11.764;2023-07-28T04:13:40;18.90;1.40
2174;DHT22;1093;51.424;11.764;2023-07-28T04:16:21;18.90;1.40
2174;DHT22;1093;51.424;11.764;2023-07-28T04:18:51;18.80;1.40
2174;DHT22;1093;51.424;11.764;2023-07-28T04:21:19;18.80;1.40
2174;DHT22;1093;51.424;11.764;2023-07-28T04:23:49;18.80;1.40
2174;DHT22;1093;51.424;11.764;2023-07-28T04:26:17;18.80;1.40
2174;DHT22;1093;51.424;11.764;2023-07-28T04:28:49;18.80;1.40
2174;DHT22;1093;51.424;11.764;2023-07-28T04:31:17;18.80;1.40
2174;DHT22;1093;51.424;11.764;2023-07-28T04:33:45;18.80;1.40
2174;DHT22;1093;51.424;11.764;2023-07-28T04:36:12;18.80;1.40
2174;DHT22;1093;51.424;11.764;2023-07-28T04:38:40;18.80;1.40
2174;DHT22;1093;51.424;11.764;2023-07-28T04:41:11;18.80;1.40
2174;DHT22;1093;51.424;11.764;2023-07-28T04:43:39;18.80;1.40
2174;DHT22;1093;51.424;11.764;2023-07-28T04:46:10;18.80;1.40
2174;DHT22;1093;51.424;11.764;2023-07-28T04:48:39;18.80;1.40
2174;DHT22;1093;51.424;11.764;2023-07-28T04:51:07;18.90;1.40
2174;DHT22;1093;51.424;11.764;2023-07-28T04:53:37;18.90;1.40
2174;DHT22;1093;51.424;11.764;2023-07-28T04:56:09;18.90;1.40
2174;DHT22;1093;51.424;11.764;2023-07-28T04:58:41;18.90;1.40
2174;DHT22;1093;51.424;11.764;2023-07-28T05:01:26;18.90;1.40
2174;DHT22;1093;51.424;11.764;2023-07-28T05:03:54;19.00;1.40
2174;DHT22;1093;51.424;11.764;2023-07-28T05:06:24;19.00;1.40
2174;DHT22;1093;51.424;11.764;2023-07-28T05:08:55;19.00;1.40
2174;DHT22;1093;51.424;11.764;2023-07-28T05:11:37;19.00;1.40
2174;DHT22;1093;51.424;11.764;2023-07-28T05:14:07;19.10;1.40
2174;DHT22;1093;51.424;11.764;2023-07-28T05:16:55;19.10;1.40
2174;DHT22;1093;51.424;11.764;2023-07-28T05:19:23;19.20;1.40
2174;DHT22;1093;51.424;11.764;2023-07-28T05:21:51;19.30;1.40
2174;DHT22;1093;51.424;11.764;2023-07-28T05:24:18;19.40;1.40
2174;DHT22;1093;51.424;11.764;2023-07-28T05:26:47;19.50;1.40
2174;DHT22;1093;51.424;11.764;2023-07-28T05:29:15;19.50;1.40
2174;DHT22;1093;51.424;11.764;2023-07-28T05:31:45;19.70;1.40
2174;DHT22;1093;51.424;11.764;2023-07-28T05:34:17;19.80;1.40
2174;DHT22;1093;51.424;11.764;2023-07-28T05:36:51;19.90;1.40
2174;DHT22;1093;51.424;11.764;2023-07-28T05:39:20;20.00;1.40
2174;DHT22;1093;51.424;11.764;2023-07-28T05:41:53;20.10;1.40
2174;DHT22;1093;51.424;11.764;2023-07-28T05:44:22;20.20;1.40
2174;DHT22;1093;51.424;11.764;2023-07-28T05:46:50;20.30;1.40
2174;DHT22;1093;51.424;11.764;2023-07-28T05:49:18;20.40;1.40
2174;DHT22;1093;51.424;11.764;2023-07-28T05:51:47;20.50;1.40
2174;DHT22;1093;51.424;11.764;2023-07-28T05:54:15;20.60;1.40
2174;DHT22;1093;51.424;11.764;2023-07-28T05:56:43;20.60;1.40
2174;DHT22;1093;51.424;11.764;2023-07-28T05:59:11;20.70;1.40
2174;DHT22;1093;51.424;11.764;2023-07-28T06:01:40;20.80;1.40
2174;DHT22;1093;51.424;11.764;2023-07-28T06:04:12;20.90;1.40
2174;DHT22;1093;51.424;11.764;2023-07-28T06:06:42;20.80;1.40
2174;DHT22;1093;51.424;11.764;2023-07-28T06:09:10;20.90;1.40
2174;DHT22;1093;51.424;11.764;2023-07-28T06:11:40;20.90;1.40
2174;DHT22;1093;51.424;11.764;2023-07-28T06:14:07;20.80;1.40
2174;DHT22;1093;51.424;11.764;2023-07-28T06:16:35;20.80;1.40
2174;DHT22;1093;51.424;11.764;2023-07-28T06:19:02;20.80;1.40
2174;DHT22;1093;51.424;11.764;2023-07-28T06:21:30;20.70;1.40
2174;DHT22;1093;51.424;11.764;2023-07-28T06:24:05;20.70;1.40
2174;DHT22;1093;51.424;11.764;2023-07-28T06:26:34;20.70;1.40
2174;DHT22;1093;51.424;11.764;2023-07-28T06:29:03;20.70;1.40
2174;DHT22;1093;51.424;11.764;2023-07-28T06:31:38;20.70;1.40
2174;DHT22;1093;51.424;11.764;2023-07-28T06:34:07;20.70;1.40
2174;DHT22;1093;51.424;11.764;2023-07-28T06:36:36;20.70;1.40
2174;DHT22;1093;51.424;11.764;2023-07-28T06:39:12;20.80;1.40
2174;DHT22;1093;51.424;11.764;2023-07-28T06:41:40;20.70;1.40
2174;DHT22;1093;51.424;11.764;2023-07-28T06:44:11;20.70;1.40
2174;DHT22;1093;51.424;11.764;2023-07-28T06:46:44;20.80;1.40
2174;DHT22;1093;51.424;11.764;2023-07-28T06:49:19;20.70;1.40
2174;DHT22;1093;51.424;11.764;2023-07-28T06:51:53;20.80;1.40
2174;DHT22;1093;51.424;11.764;2023-07-28T06:54:42;20.80;1.40
2174;DHT22;1093;51.424;11.764;2023-07-28T06:57:29;20.80;1.40
2174;DHT22;1093;51.424;11.764;2023-07-28T07:00:00;20.80;1.40
2174;DHT22;1093;51.424;11.764;2023-07-28T07:02:41;20.90;1.40
2174;DHT22;1093;51.424;11.764;2023-07-28T07:05:09;20.90;1.40
2174;DHT22;1093;51.424;11.764;2023-07-28T07:07:37;20.90;1.40
2174;DHT22;1093;51.424;11.764;2023-07-28T07:10:09;20.90;1.40
2174;DHT22;1093;51.424;11.764;2023-07-28T07:12:50;21.00;1.40
2174;DHT22;1093;51.424;11.764;2023-07-28T07:15:24;21.10;1.40
2174;DHT22;1093;51.424;11.764;2023-07-28T07:17:55;21.10;1.40
2174;DHT22;1093;51.424;11.764;2023-07-28T07:20:22;21.20;1.40
2174;DHT22;1093;51.424;11.764;2023-07-28T07:22:50;21.20;1.40
2174;DHT22;1093;51.424;11.764;2023-07-28T07:25:19;21.30;1.40
2174;DHT22;1093;51.424;11.764;2023-07-28T07:27:48;21.30;1.40
2174;DHT22;1093;51.424;11.764;2023-07-28T07:30:17;21.40;1.40
2174;DHT22;1093;51.424;11.764;2023-07-28T07:32:48;21.40;1.40
2174;DHT22;1093;51.424;11.764;2023-07-28T07:35:15;21.50;1.40
2174;DHT22;1093;51.424;11.764;2023-07-28T07:37:44;21.50;1.40
2174;DHT22;1093;51.424;11.764;2023-07-28T07:40:11;21.50;1.40
2174;DHT22;1093;51.424;11.764;2023-07-28T07:42:46;21.50;1.40
2174;DHT22;1093;51.424;11.764;2023-07-28T07:45:13;21.60;1.40
2174;DHT22;1093;51.424;11.764;2023-07-28T07:47:44;21.60;1.40
2174;DHT22;1093;51.424;11.764;2023-07-28T07:50:11;21.70;1.40
2174;DHT22;1093;51.424;11.764;2023-07-28T07:52:39;21.80;1.40
2174;DHT22;1093;51.424;11.764;2023-07-28T07:55:06;21.90;1.40
2174;DHT22;1093;51.424;11.764;2023-07-28T07:57:36;21.90;1.40
2174;DHT22;1093;51.424;11.764;2023-07-28T08:00:11;22.00;1.40
2174;DHT22;1093;51.424;11.764;2023-07-28T08:02:39;22.00;1.40
2174;DHT22;1093;51.424;11.764;2023-07-28T08:05:08;22.20;1.40
2174;DHT22;1093;51.424;11.764;2023-07-28T08:07:35;22.20;1.40
2174;DHT22;1093;51.424;11.764;2023-07-28T08:10:03;22.30;1.40
2174;DHT22;1093;51.424;11.764;2023-07-28T08:12:33;22.40;1.40
2174;DHT22;1093;51.424;11.764;2023-07-28T08:15:00;22.40;1.40
2174;DHT22;1093;51.424;11.764;2023-07-28T08:17:29;22.40;1.40
2174;DHT22;1093;51.424;11.764;2023-07-28T08:19:56;22.50;1.40
2174;DHT22;1093;51.424;11.764;2023-07-28T08:22:24;22.50;1.40
2174;DHT22;1093;51.424;11.764;2023-07-28T08:24:51;22.60;1.40
2174;DHT22;1093;51.424;11.764;2023-07-28T08:27:18;22.60;1.40
2174;DHT22;1093;51.424;11.764;2023-07-28T08:29:45;22.70;1.40
2174;DHT22;1093;51.424;11.764;2023-07-28T08:32:13;22.70;1.40
2174;DHT22;1093;51.424;11.764;2023-07-28T08:34:44;22.80;1.40
2174;DHT22;1093;51.424;11.764;2023-07-28T08:37:14;22.90;1.40
2174;DHT22;1093;51.424;11.764;2023-07-28T08:39:44;23.10;1.40
2174;DHT22;1093;51.424;11.764;2023-07-28T08:42:11;23.20;1.40
2174;DHT22;1093;51.424;11.764;2023-07-28T08:44:38;23.30;1.40
2174;DHT22;1093;51.424;11.764;2023-07-28T08:47:06;23.40;1.40
2174;DHT22;1093;51.424;11.764;2023-07-28T08:49:36;23.60;1.40
2174;DHT22;1093;51.424;11.764;2023-07-28T08:55:00;23.90;1.40
2174;DHT22;1093;51.424;11.764;2023-07-28T08:57:28;24.00;1.40
2174;DHT22;1093;51.424;11.764;2023-07-28T08:59:55;24.20;1.40
2174;DHT22;1093;51.424;11.764;2023-07-28T09:02:23;24.40;1.40
2174;DHT22;1093;51.424;11.764;2023-07-28T09:04:52;24.50;1.40
2174;DHT22;1093;51.424;11.764;2023-07-28T09:07:21;24.60;1.40
2174;DHT22;1093;51.424;11.764;2023-07-28T09:09:49;24.60;1.40
2174;DHT22;1093;51.424;11.764;2023-07-28T09:12:25;24.80;1.40
2174;DHT22;1093;51.424;11.764;2023-07-28T09:14:56;24.90;1.40
2174;DHT22;1093;51.424;11.764;2023-07-28T09:17:23;24.90;1.40
2174;DHT22;1093;51.424;11.764;2023-07-28T09:20:05;25.00;1.40
2174;DHT22;1093;51.424;11.764;2023-07-28T09:22:42;25.10;1.40
2174;DHT22;1093;51.424;11.764;2023-07-28T09:25:15;25.30;1.40
2174;DHT22;1093;51.424;11.764;2023-07-28T09:27:50;25.30;1.40
2174;DHT22;1093;51.424;11.764;2023-07-28T09:30:19;25.40;1.40
2174;DHT22;1093;51.424;11.764;2023-07-28T09:32:52;25.40;1.40
2174;DHT22;1093;51.424;11.764;2023-07-28T09:35:20;25.40;1.40
2174;DHT22;1093;51.424;11.764;2023-07-28T09:37:50;25.40;1.40
2174;DHT22;1093;51.424;11.764;2023-07-28T09:40:30;25.40;1.40
2174;DHT22;1093;51.424;11.764;2023-07-28T09:43:02;25.40;1.40
2174;DHT22;1093;51.424;11.764;2023-07-28T09:45:37;25.40;1.40
2174;DHT22;1093;51.424;11.764;2023-07-28T09:48:09;25.30;1.40
2174;DHT22;1093;51.424;11.764;2023-07-28T09:50:41;25.40;1.40
2174;DHT22;1093;51.424;11.764;2023-07-28T09:53:15;25.40;1.40
2174;DHT22;1093;51.424;11.764;2023-07-28T09:55:42;25.30;1.40
2174;DHT22;1093;51.424;11.764;2023-07-28T09:58:10;25.30;1.40
2174;DHT22;1093;51.424;11.764;2023-07-28T10:00:42;25.20;1.40
2174;DHT22;1093;51.424;11.764;2023-07-28T10:03:17;25.20;1.40
2174;DHT22;1093;51.424;11.764;2023-07-28T10:05:49;25.10;1.40
2174;DHT22;1093;51.424;11.764;2023-07-28T10:08:20;25.10;1.40
2174;DHT22;1093;51.424;11.764;2023-07-28T10:10:48;25.10;1.40
2174;DHT22;1093;51.424;11.764;2023-07-28T10:13:25;25.10;1.40
2174;DHT22;1093;51.424;11.764;2023-07-28T10:15:54;25.20;1.40
2174;DHT22;1093;51.424;11.764;2023-07-28T10:18:26;25.30;1.40
2174;DHT22;1093;51.424;11.764;2023-07-28T10:21:06;25.30;1.40
2174;DHT22;1093;51.424;11.764;2023-07-28T10:23:41;25.40;1.40
2174;DHT22;1093;51.424;11.764;2023-07-28T10:26:46;25.50;1.40
2174;DHT22;1093;51.424;11.764;2023-07-28T10:29:19;25.40;1.40
2174;DHT22;1093;51.424;11.764;2023-07-28T10:35:07;25.50;1.40
2174;DHT22;1093;51.424;11.764;2023-07-28T10:37:37;25.70;1.40
2174;DHT22;1093;51.424;11.764;2023-07-28T10:40:29;25.70;1.40
2174;DHT22;1093;51.424;11.764;2023-07-28T10:42:58;25.80;1.40
2174;DHT22;1093;51.424;11.764;2023-07-28T10:45:31;25.90;1.40
2174;DHT22;1093;51.424;11.764;2023-07-28T10:48:01;26.00;1.40
2174;DHT22;1093;51.424;11.764;2023-07-28T10:50:30;26.30;1.40
2174;DHT22;1093;51.424;11.764;2023-07-28T10:53:00;26.30;1.40
2174;DHT22;1093;51.424;11.764;2023-07-28T10:56:38;26.30;1.40
2174;DHT22;1093;51.424;11.764;2023-07-28T10:59:40;26.30;1.40
2174;DHT22;1093;51.424;11.764;2023-07-28T11:02:29;26.30;1.40
2174;DHT22;1093;51.424;11.764;2023-07-28T11:05:20;26.30;1.40
2174;DHT22;1093;51.424;11.764;2023-07-28T11:15:43;26.30;1.40
2174;DHT22;1093;51.424;11.764;2023-07-28T11:18:59;26.40;1.40
2174;DHT22;1093;51.424;11.764;2023-07-28T11:22:01;26.40;1.40
2174;DHT22;1093;51.424;11.764;2023-07-28T11:24:28;26.30;1.40
2174;DHT22;1093;51.424;11.764;2023-07-28T11:27:01;26.30;1.40
2174;DHT22;1093;51.424;11.764;2023-07-28T11:30:12;26.30;1.40
2174;DHT22;1093;51.424;11.764;2023-07-28T11:36:35;26.30;1.40
2174;DHT22;1093;51.424;11.764;2023-07-28T11:39:19;26.30;1.40
2174;DHT22;1093;51.424;11.764;2023-07-28T11:42:07;26.40;1.40
2174;DHT22;1093;51.424;11.764;2023-07-28T11:45:24;26.60;1.40
2174;DHT22;1093;51.424;11.764;2023-07-28T11:48:08;26.70;1.40
2174;DHT22;1093;51.424;11.764;2023-07-28T11:50:51;26.80;1.40
2174;DHT22;1093;51.424;11.764;2023-07-28T11:54:20;26.90;1.40
2174;DHT22;1093;51.424;11.764;2023-07-28T11:57:18;27.00;1.40
2174;DHT22;1093;51.424;11.764;2023-07-28T12:00:00;27.00;1.40
2174;DHT22;1093;51.424;11.764;2023-07-28T12:03:10;27.00;1.40
2174;DHT22;1093;51.424;11.764;2023-07-28T12:08:35;27.00;1.40
2174;DHT22;1093;51.424;11.764;2023-07-28T12:14:54;27.30;1.40
2174;DHT22;1093;51.424;11.764;2023-07-28T12:18:07;27.40;1.40
2174;DHT22;1093;51.424;11.764;2023-07-28T12:27:29;28.10;1.40
2174;DHT22;1093;51.424;11.764;2023-07-28T12:30:08;28.20;1.40
2174;DHT22;1093;51.424;11.764;2023-07-28T12:32:36;28.30;1.40
2174;DHT22;1093;51.424;11.764;2023-07-28T12:35:07;28.30;1.40
2174;DHT22;1093;51.424;11.764;2023-07-28T12:37:37;28.40;1.40
2174;DHT22;1093;51.424;11.764;2023-07-28T12:40:12;28.40;1.40
2174;DHT22;1093;51.424;11.764;2023-07-28T12:42:47;28.60;1.40
2174;DHT22;1093;51.424;11.764;2023-07-28T12:45:25;28.60;1.40
2174;DHT22;1093;51.424;11.764;2023-07-28T12:47:55;28.50;1.40
2174;DHT22;1093;51.424;11.764;2023-07-28T12:50:36;28.50;1.40
2174;DHT22;1093;51.424;11.764;2023-07-28T12:53:17;28.40;1.40
2174;DHT22;1093;51.424;11.764;2023-07-28T12:56:05;28.60;1.40
2174;DHT22;1093;51.424;11.764;2023-07-28T12:58:43;28.70;1.40
2174;DHT22;1093;51.424;11.764;2023-07-28T13:01:24;28.80;1.40
2174;DHT22;1093;51.424;11.764;2023-07-28T13:04:13;28.90;1.40
2174;DHT22;1093;51.424;11.764;2023-07-28T13:06:49;29.00;1.40
2174;DHT22;1093;51.424;11.764;2023-07-28T13:09:23;29.10;1.40
2174;DHT22;1093;51.424;11.764;2023-07-28T13:11:59;29.00;1.40
2174;DHT22;1093;51.424;11.764;2023-07-28T13:14:47;29.00;1.40
2174;DHT22;1093;51.424;11.764;2023-07-28T13:17:25;29.00;1.40
2174;DHT22;1093;51.424;11.764;2023-07-28T13:19:53;29.10;1.40
2174;DHT22;1093;51.424;11.764;2023-07-28T13:22:30;29.40;1.40
2174;DHT22;1093;51.424;11.764;2023-07-28T13:25:11;29.50;1.40
2174;DHT22;1093;51.424;11.764;2023-07-28T13:28:28;29.60;1.40
2174;DHT22;1093;51.424;11.764;2023-07-28T13:31:38;29.70;1.40
2174;DHT22;1093;51.424;11.764;2023-07-28T13:34:44;29.80;1.40
2174;DHT22;1093;51.424;11.764;2023-07-28T13:37:39;30.00;1.40
2174;DHT22;1093;51.424;11.764;2023-07-28T13:40:29;30.10;1.40
2174;DHT22;1093;51.424;11.764;2023-07-28T13:43:13;30.20;1.40
2174;DHT22;1093;51.424;11.764;2023-07-28T13:46:11;30.20;1.40
2174;DHT22;1093;51.424;11.764;2023-07-28T13:49:29;30.20;1.40
2174;DHT22;1093;51.424;11.764;2023-07-28T13:55:41;30.30;1.40
2174;DHT22;1093;51.424;11.764;2023-07-28T13:58:48;30.30;1.40
2174;DHT22;1093;51.424;11.764;2023-07-28T14:04:20;30.30;1.40
2174;DHT22;1093;51.424;11.764;2023-07-28T14:07:16;30.50;1.40
2174;DHT22;1093;51.424;11.764;2023-07-28T14:26:39;30.80;1.40
2174;DHT22;1093;51.424;11.764;2023-07-28T14:29:38;30.70;1.40
2174;DHT22;1093;51.424;11.764;2023-07-28T14:34:20;30.60;1.40
2174;DHT22;1093;51.424;11.764;2023-07-28T14:36:01;30.70;1.40
2174;DHT22;1093;51.424;11.764;2023-07-28T14:39:08;30.80;1.40
2174;DHT22;1093;51.424;11.764;2023-07-28T14:55:20;30.50;1.40
2174;DHT22;1093;51.424;11.764;2023-07-28T14:57:57;30.40;1.40
2174;DHT22;1093;51.424;11.764;2023-07-28T15:00:24;30.30;1.40
2174;DHT22;1093;51.424;11.764;2023-07-28T15:02:51;30.20;1.40
2174;DHT22;1093;51.424;11.764;2023-07-28T15:05:20;30.30;1.40
2174;DHT22;1093;51.424;11.764;2023-07-28T15:07:53;30.30;1.40
2174;DHT22;1093;51.424;11.764;2023-07-28T15:10:28;30.30;1.40
2174;DHT22;1093;51.424;11.764;2023-07-28T15:12:57;30.20;1.40
2174;DHT22;1093;51.424;11.764;2023-07-28T15:15:27;30.10;1.40
2174;DHT22;1093;51.424;11.764;2023-07-28T15:17:57;30.00;1.40
2174;DHT22;1093;51.424;11.764;2023-07-28T15:20:25;29.90;1.40
2174;DHT22;1093;51.424;11.764;2023-07-28T15:22:52;29.90;1.40
2174;DHT22;1093;51.424;11.764;2023-07-28T15:25:20;29.90;1.40
2174;DHT22;1093;51.424;11.764;2023-07-28T15:27:52;29.80;1.40
2174;DHT22;1093;51.424;11.764;2023-07-28T15:30:21;29.70;1.40
2174;DHT22;1093;51.424;11.764;2023-07-28T15:32:48;29.60;1.40
2174;DHT22;1093;51.424;11.764;2023-07-28T15:35:16;29.60;1.40
2174;DHT22;1093;51.424;11.764;2023-07-28T15:37:46;29.60;1.40
2174;DHT22;1093;51.424;11.764;2023-07-28T15:40:14;29.50;1.40
2174;DHT22;1093;51.424;11.764;2023-07-28T15:42:41;29.40;1.40
2174;DHT22;1093;51.424;11.764;2023-07-28T15:45:30;29.40;1.40
2174;DHT22;1093;51.424;11.764;2023-07-28T15:48:01;29.30;1.40
2174;DHT22;1093;51.424;11.764;2023-07-28T15:50:29;29.40;1.40
2174;DHT22;1093;51.424;11.764;2023-07-28T15:52:57;29.40;1.40
2174;DHT22;1093;51.424;11.764;2023-07-28T15:55:27;29.40;1.40
2174;DHT22;1093;51.424;11.764;2023-07-28T15:57:54;29.40;1.40
2174;DHT22;1093;51.424;11.764;2023-07-28T16:00:25;29.30;1.40
2174;DHT22;1093;51.424;11.764;2023-07-28T16:02:53;29.30;1.40
2174;DHT22;1093;51.424;11.764;2023-07-28T16:05:23;29.20;1.40
2174;DHT22;1093;51.424;11.764;2023-07-28T16:07:50;29.10;1.40
2174;DHT22;1093;51.424;11.764;2023-07-28T16:10:17;29.00;1.40
2174;DHT22;1093;51.424;11.764;2023-07-28T16:12:44;28.90;1.40
2174;DHT22;1093;51.424;11.764;2023-07-28T16:15:13;28.90;1.40
2174;DHT22;1093;51.424;11.764;2023-07-28T16:17:45;28.80;1.40
2174;DHT22;1093;51.424;11.764;2023-07-28T16:20:12;28.70;1.40
2174;DHT22;1093;51.424;11.764;2023-07-28T16:22:40;28.70;1.40
2174;DHT22;1093;51.424;11.764;2023-07-28T16:25:09;28.70;1.40
2174;DHT22;1093;51.424;11.764;2023-07-28T16:27:36;28.60;1.40
2174;DHT22;1093;51.424;11.764;2023-07-28T16:30:06;28.60;1.40
2174;DHT22;1093;51.424;11.764;2023-07-28T16:32:36;28.40;1.40
2174;DHT22;1093;51.424;11.764;2023-07-28T16:35:11;28.40;1.40
2174;DHT22;1093;51.424;11.764;2023-07-28T16:37:38;28.30;1.40
2174;DHT22;1093;51.424;11.764;2023-07-28T16:40:08;28.20;1.40
2174;DHT22;1093;51.424;11.764;2023-07-28T16:42:37;28.10;1.40
2174;DHT22;1093;51.424;11.764;2023-07-28T16:45:10;28.10;1.40
2174;DHT22;1093;51.424;11.764;2023-07-28T16:47:39;28.10;1.40
2174;DHT22;1093;51.424;11.764;2023-07-28T16:50:09;28.00;1.40
2174;DHT22;1093;51.424;11.764;2023-07-28T16:52:38;28.00;1.40
2174;DHT22;1093;51.424;11.764;2023-07-28T16:55:07;28.10;1.40
2174;DHT22;1093;51.424;11.764;2023-07-28T16:57:35;28.00;1.40
2174;DHT22;1093;51.424;11.764;2023-07-28T17:00:02;27.90;1.40
2174;DHT22;1093;51.424;11.764;2023-07-28T17:02:29;27.90;1.40
2174;DHT22;1093;51.424;11.764;2023-07-28T17:04:58;27.80;1.40
2174;DHT22;1093;51.424;11.764;2023-07-28T17:07:26;27.70;1.40
2174;DHT22;1093;51.424;11.764;2023-07-28T17:09:53;27.60;1.40
2174;DHT22;1093;51.424;11.764;2023-07-28T17:12:21;27.60;1.40
2174;DHT22;1093;51.424;11.764;2023-07-28T17:14:48;27.60;1.40
2174;DHT22;1093;51.424;11.764;2023-07-28T17:17:16;27.50;1.40
2174;DHT22;1093;51.424;11.764;2023-07-28T17:19:43;27.40;1.40
2174;DHT22;1093;51.424;11.764;2023-07-28T17:22:10;27.40;1.40
2174;DHT22;1093;51.424;11.764;2023-07-28T17:24:41;27.30;1.40
2174;DHT22;1093;51.424;11.764;2023-07-28T17:27:09;27.20;1.40
2174;DHT22;1093;51.424;11.764;2023-07-28T17:29:39;27.20;1.40
2174;DHT22;1093;51.424;11.764;2023-07-28T17:32:07;27.10;1.40
2174;DHT22;1093;51.424;11.764;2023-07-28T17:34:36;27.10;1.40
2174;DHT22;1093;51.424;11.764;2023-07-28T17:37:04;27.00;1.40
2174;DHT22;1093;51.424;11.764;2023-07-28T17:39:42;26.90;1.40
2174;DHT22;1093;51.424;11.764;2023-07-28T17:42:11;26.90;1.40
2174;DHT22;1093;51.424;11.764;2023-07-28T17:44:39;26.70;1.40
2174;DHT22;1093;51.424;11.764;2023-07-28T17:47:06;26.70;1.40
2174;DHT22;1093;51.424;11.764;2023-07-28T17:49:33;26.60;1.40
2174;DHT22;1093;51.424;11.764;2023-07-28T17:52:05;26.50;1.40
2174;DHT22;1093;51.424;11.764;2023-07-28T17:54:32;26.40;1.40
2174;DHT22;1093;51.424;11.764;2023-07-28T17:57:01;26.30;1.40
2174;DHT22;1093;51.424;11.764;2023-07-28T17:59:29;26.30;1.40
2174;DHT22;1093;51.424;11.764;2023-07-28T18:01:57;26.20;1.40
2174;DHT22;1093;51.424;11.764;2023-07-28T18:04:28;26.10;1.40
2174;DHT22;1093;51.424;11.764;2023-07-28T18:07:00;26.00;1.40
2174;DHT22;1093;51.424;11.764;2023-07-28T18:09:30;25.90;1.40
2174;DHT22;1093;51.424;11.764;2023-07-28T18:11:57;25.90;1.40
2174;DHT22;1093;51.424;11.764;2023-07-28T18:14:26;25.80;1.40
2174;DHT22;1093;51.424;11.764;2023-07-28T18:16:55;25.70;1.40